CheckWX is a tool to help pilots better visualize weather data.  It is not intended as a substitute for an official pre-flight weather briefing.

23:03:50 UTC

KHLG TAF
Wheeling Ohio Co Airport
Wheeling, West Virginia, USA
KHLG 191726Z 1918/2018 12004KT P6SM BKN250 FM200900 15004KT P6SM BKN100

Oct-19@
18:00 UTC

Oct-19 @ 18:00 UTC

Oct-20@
09:00 UTC

Oct-20 @ 09:00 UTC

KHLG 191726Z 1918/2018 12004KT P6SM BKN250
Wind
  • 120° at 4 KTS
Cloud Levels
  • Broken at 25,000' AGL

Oct-20@
09:00 UTC

Oct-20 @ 09:00 UTC

Oct-20@
18:00 UTC

Oct-20 @ 18:00 UTC

FM200900 15004KT P6SM BKN100

From

From Standard forecast or significant change

Wind
  • 150° at 4 KTS
Cloud Levels
  • Broken at 10,000' AGL